Time;durP1;ratioP1;P1;durP2;ratioP2;P2;SDS_P1;SDS_P2;PMS_P1;PMS_P2;Temp;Humidity;BMP_temperature;BMP_pressure;BME280_temperature;BME280_humidity;BME280_pressure;Samples;Min_cycle;Max_cycle;Signal;HPM_P1;HPM_P2
2021/07/27 00:00:58;;;;;;;10.85;8.88;;;;;;;;;;2068685;28;20174;-54
2021/07/27 00:01:59;;;;;;;9.77;8.88;;;;;;;;;;2064345;28;20196;-55
2021/07/27 00:03:00;;;;;;;9.38;8.48;;;;;;;;;;2072360;28;20157;-56
2021/07/27 00:04:00;;;;;;;9.55;8.65;;;;;;;;;;2075581;28;20215;-56
2021/07/27 00:05:00;;;;;;;9.70;8.70;;;;;;;;;;2080512;28;20658;-55
2021/07/27 00:06:00;;;;;;;9.57;8.30;;;;;;;;;;2077727;28;20172;-56
2021/07/27 00:07:01;;;;;;;10.18;9.27;;;;;;;;;;2075380;28;20193;-55
2021/07/27 00:08:01;;;;;;;9.70;8.48;;;;;;;;;;2081077;28;20175;-51
2021/07/27 00:09:01;;;;;;;10.13;8.90;;;;;;;;;;2073356;28;20579;-53
2021/07/27 00:10:01;;;;;;;9.57;8.68;;;;;;;;;;2072155;28;20200;-53
2021/07/27 00:11:03;;;;;;;9.60;8.70;;;;;;;;;;2078375;28;20190;-55
2021/07/27 00:12:03;;;;;;;10.82;8.65;;;;;;;;;;2082975;28;20180;-57
2021/07/27 00:13:04;;;;;;;11.35;10.07;;;;;;;;;;2083178;28;20191;-57
2021/07/27 00:14:05;;;;;;;9.05;8.25;;;;;;;;;;2083963;28;20176;-57
2021/07/27 00:15:05;;;;;;;10.05;9.15;;;;;;;;;;2075391;28;20183;-55
2021/07/27 00:16:06;;;;;;;8.82;8.13;;;;;;;;;;2069420;28;20553;-57
2021/07/27 00:17:06;;;;;;;10.23;9.23;;;;;;;;;;2073199;28;20210;-54
2021/07/27 00:18:07;;;;;;;9.77;8.88;;;;;;;;;;2081559;28;20199;-56
2021/07/27 00:19:07;;;;;;;9.50;8.70;;;;;;;;;;2080871;28;20203;-56
2021/07/27 00:20:08;;;;;;;10.20;9.18;;;;;;;;;;2080171;28;20207;-57
2021/07/27 00:21:08;;;;;;;9.63;8.82;;;;;;;;;;2081014;28;20207;-57
2021/07/27 00:22:12;;;;;;;9.68;8.77;;;;;;;;;;2080287;28;20272;-54
2021/07/27 00:23:12;;;;;;;10.57;9.50;;;;;;;;;;2077310;28;20255;-53
2021/07/27 00:24:12;;;;;;;10.30;9.25;;;;;;;;;;2069735;28;20236;-55
2021/07/27 00:25:16;;;;;;;9.23;8.43;;;;;;;;;;2067625;28;20169;-52
2021/07/27 00:26:16;;;;;;;9.43;8.63;;;;;;;;;;2081121;28;20179;-56
2021/07/27 00:27:16;;;;;;;9.50;8.55;;;;;;;;;;2085166;23;20264;-52
2021/07/27 00:28:17;;;;;;;9.63;8.65;;;;;;;;;;2080267;28;20172;-55
2021/07/27 00:29:17;;;;;;;9.93;9.02;;;;;;;;;;2087657;28;20580;-54
2021/07/27 00:30:17;;;;;;;9.23;8.27;;;;;;;;;;2088760;28;20182;-57
2021/07/27 00:31:18;;;;;;;9.60;8.43;;;;;;;;;;2085661;28;20652;-56
2021/07/27 00:32:18;;;;;;;10.20;9.18;;;;;;;;;;2097637;28;20182;-59
2021/07/27 00:33:19;;;;;;;10.63;9.13;;;;;;;;;;2089306;28;20183;-54
2021/07/27 00:34:19;;;;;;;9.38;8.57;;;;;;;;;;2089284;28;20172;-58
2021/07/27 00:35:19;;;;;;;10.55;9.30;;;;;;;;;;2087036;28;20678;-59
2021/07/27 00:36:20;;;;;;;11.10;9.88;;;;;;;;;;2086163;28;20246;-64
2021/07/27 00:37:27;;;;;;;10.93;9.68;;;;;;;;;;2082418;28;20636;-57
2021/07/27 00:38:27;;;;;;;11.23;9.75;;;;;;;;;;2092501;28;20243;-57
2021/07/27 00:39:28;;;;;;;10.88;9.77;;;;;;;;;;2088131;28;20179;-59
2021/07/27 00:40:28;;;;;;;11.10;10.05;;;;;;;;;;2084161;28;20188;-59
2021/07/27 00:41:28;;;;;;;10.25;9.25;;;;;;;;;;2087800;28;20272;-59
2021/07/27 00:42:30;;;;;;;12.18;9.52;;;;;;;;;;2090185;28;20186;-60
2021/07/27 00:43:31;;;;;;;11.63;10.43;;;;;;;;;;2089907;28;20709;-60
2021/07/27 00:44:31;;;;;;;11.30;10.27;;;;;;;;;;2089423;28;20194;-58
2021/07/27 00:45:31;;;;;;;12.50;10.63;;;;;;;;;;2088997;28;20183;-57
2021/07/27 00:46:32;;;;;;;12.35;10.60;;;;;;;;;;2089360;28;20171;-58
2021/07/27 00:47:32;;;;;;;13.30;11.93;;;;;;;;;;2089111;28;20210;-60
2021/07/27 00:48:32;;;;;;;12.20;10.75;;;;;;;;;;2088877;28;20168;-58
2021/07/27 00:49:33;;;;;;;12.40;11.20;;;;;;;;;;2088611;28;20657;-60
2021/07/27 00:50:33;;;;;;;13.65;11.10;;;;;;;;;;2089121;28;20180;-59
2021/07/27 00:51:33;;;;;;;12.27;11.07;;;;;;;;;;2088767;28;20221;-59
2021/07/27 00:52:34;;;;;;;12.80;11.32;;;;;;;;;;2089509;28;20233;-61
2021/07/27 00:53:35;;;;;;;12.45;11.18;;;;;;;;;;2087112;28;20635;-60
2021/07/27 00:54:36;;;;;;;13.48;11.75;;;;;;;;;;2084423;28;20262;-56
2021/07/27 00:55:38;;;;;;;14.05;11.48;;;;;;;;;;2088132;28;20182;-60
2021/07/27 00:56:39;;;;;;;13.35;11.95;;;;;;;;;;2086055;28;20214;-58
2021/07/27 00:57:39;;;;;;;13.23;11.85;;;;;;;;;;2087381;28;21297;-56
2021/07/27 00:58:40;;;;;;;13.48;12.07;;;;;;;;;;2092603;28;20201;-54
2021/07/27 00:59:40;;;;;;;13.05;11.68;;;;;;;;;;2089188;28;20222;-59
2021/07/27 01:00:42;;;;;;;14.18;12.63;;;;;;;;;;2089876;28;20220;-56
2021/07/27 01:01:42;;;;;;;12.68;11.35;;;;;;;;;;2086376;28;20187;-56
2021/07/27 02:17:00;;;;;;;18.70;15.23;;;;;;;;;;2084956;28;20160;-59
2021/07/27 02:18:00;;;;;;;17.65;15.00;;;;;;;;;;2082924;28;20176;-58
2021/07/27 02:19:01;;;;;;;18.55;14.80;;;;;;;;;;2087963;28;20187;-57
2021/07/27 02:20:02;;;;;;;17.42;14.73;;;;;;;;;;2088220;28;20187;-57
2021/07/27 02:21:03;;;;;;;18.98;15.60;;;;;;;;;;2088288;28;20632;-55
2021/07/27 02:22:04;;;;;;;20.15;16.13;;;;;;;;;;2088616;28;20198;-58
2021/07/27 02:23:05;;;;;;;23.15;17.35;;;;;;;;;;2088512;28;20979;-58
2021/07/27 02:24:05;;;;;;;18.88;16.42;;;;;;;;;;2088334;28;20179;-56
2021/07/27 02:25:06;;;;;;;18.52;16.52;;;;;;;;;;2087812;28;20178;-59
2021/07/27 02:26:08;;;;;;;20.95;16.10;;;;;;;;;;2087729;28;20540;-60
2021/07/27 02:27:10;;;;;;;19.33;16.67;;;;;;;;;;2087925;28;20249;-60
2021/07/27 02:28:12;;;;;;;21.05;17.10;;;;;;;;;;2088845;28;20213;-58
2021/07/27 02:29:15;;;;;;;20.50;16.80;;;;;;;;;;2089052;28;20233;-60
2021/07/27 02:30:16;;;;;;;20.60;16.42;;;;;;;;;;2087084;28;20175;-60
2021/07/27 02:31:23;;;;;;;21.33;17.30;;;;;;;;;;2084474;28;20270;-59
2021/07/27 02:32:24;;;;;;;19.67;17.27;;;;;;;;;;2087905;28;20310;-59
2021/07/27 02:33:25;;;;;;;21.13;17.58;;;;;;;;;;2088925;28;20644;-58
2021/07/27 02:34:31;;;;;;;23.73;18.35;;;;;;;;;;2086716;28;20168;-60
2021/07/27 02:35:33;;;;;;;24.90;18.73;;;;;;;;;;2089160;28;20639;-59
2021/07/27 02:36:34;;;;;;;25.05;19.05;;;;;;;;;;2089530;28;20171;-57
2021/07/27 02:37:34;;;;;;;21.17;18.10;;;;;;;;;;2088987;28;20737;-60
2021/07/27 02:38:35;;;;;;;22.77;18.40;;;;;;;;;;2088531;28;20532;-59
2021/07/27 02:39:35;;;;;;;22.83;19.35;;;;;;;;;;2089184;28;20274;-58
2021/07/27 02:40:35;;;;;;;23.05;17.92;;;;;;;;;;2084535;28;20203;-53
2021/07/27 02:41:36;;;;;;;22.05;18.33;;;;;;;;;;2087933;28;20196;-59
2021/07/27 02:42:36;;;;;;;21.73;17.67;;;;;;;;;;2088834;28;20259;-57
2021/07/27 02:43:36;;;;;;;24.33;19.80;;;;;;;;;;2094621;28;20754;-59
2021/07/27 02:44:36;;;;;;;24.08;19.98;;;;;;;;;;2088928;28;20822;-58
2021/07/27 02:45:37;;;;;;;23.90;19.52;;;;;;;;;;2083086;28;20187;-59
2021/07/27 02:46:37;;;;;;;25.58;21.08;;;;;;;;;;2088471;28;20214;-59
2021/07/27 02:47:41;;;;;;;28.15;22.08;;;;;;;;;;2087416;28;20849;-60
2021/07/27 02:48:42;;;;;;;28.75;22.50;;;;;;;;;;2085502;28;20580;-59
2021/07/27 02:49:42;;;;;;;31.55;22.88;;;;;;;;;;2088975;28;20174;-59
2021/07/27 02:50:43;;;;;;;45.72;24.88;;;;;;;;;;2089426;28;20168;-58
2021/07/27 02:51:50;;;;;;;38.13;24.85;;;;;;;;;;2088612;28;20164;-58
2021/07/27 02:52:50;;;;;;;43.90;26.77;;;;;;;;;;2089321;28;20229;-56
2021/07/27 02:53:50;;;;;;;35.90;27.90;;;;;;;;;;2088192;28;20252;-59
2021/07/27 02:54:51;;;;;;;38.25;28.65;;;;;;;;;;2088424;28;20612;-60
2021/07/27 02:55:51;;;;;;;43.30;31.10;;;;;;;;;;2087874;28;20187;-59
2021/07/27 02:56:51;;;;;;;44.28;32.33;;;;;;;;;;2084847;28;20226;-58
2021/07/27 02:57:51;;;;;;;47.70;33.75;;;;;;;;;;2088682;28;20207;-59
2021/07/27 02:58:52;;;;;;;53.03;36.80;;;;;;;;;;2089069;28;20556;-59
2021/07/27 02:59:59;;;;;;;59.20;37.05;;;;;;;;;;2089274;28;20242;-59
2021/07/27 03:01:00;;;;;;;55.40;36.97;;;;;;;;;;2088607;28;20174;-59
2021/07/27 03:02:01;;;;;;;57.45;37.25;;;;;;;;;;2088237;28;20564;-60
2021/07/27 03:03:01;;;;;;;57.75;38.40;;;;;;;;;;2088945;28;20254;-60
2021/07/27 03:04:01;;;;;;;59.50;40.22;;;;;;;;;;2087948;28;20176;-59
2021/07/27 03:05:02;;;;;;;59.97;40.10;;;;;;;;;;2080330;28;20200;-60
2021/07/27 03:06:03;;;;;;;69.13;42.55;;;;;;;;;;2080964;28;20637;-60
2021/07/27 03:07:05;;;;;;;65.30;42.45;;;;;;;;;;2081334;28;20618;-59
2021/07/27 03:08:11;;;;;;;66.85;43.78;;;;;;;;;;2084904;28;20200;-59
2021/07/27 03:09:25;;;;;;;65.55;41.85;;;;;;;;;;2089592;28;20210;-60
2021/07/27 03:10:25;;;;;;;70.80;43.67;;;;;;;;;;2088869;28;20163;-60
2021/07/27 03:11:25;;;;;;;63.25;43.22;;;;;;;;;;2089279;28;20168;-59
2021/07/27 03:12:25;;;;;;;69.85;44.33;;;;;;;;;;2089417;28;20209;-59
2021/07/27 03:13:26;;;;;;;73.53;43.67;;;;;;;;;;2083169;28;20172;-58
2021/07/27 03:14:26;;;;;;;72.15;45.53;;;;;;;;;;2089009;28;20180;-60
2021/07/27 03:15:26;;;;;;;76.68;45.47;;;;;;;;;;2089522;28;20183;-59
2021/07/27 03:16:27;;;;;;;69.70;43.95;;;;;;;;;;2089419;28;20172;-60
2021/07/27 03:17:27;;;;;;;72.78;44.40;;;;;;;;;;2085173;28;20226;-60
2021/07/27 03:18:27;;;;;;;72.55;45.42;;;;;;;;;;2081418;28;20234;-60
2021/07/27 03:19:27;;;;;;;72.72;44.13;;;;;;;;;;2081023;28;20161;-57
2021/07/27 03:20:28;;;;;;;75.32;43.75;;;;;;;;;;2089358;28;20187;-59
2021/07/27 03:21:28;;;;;;;72.57;45.50;;;;;;;;;;2088902;28;20199;-60
2021/07/27 03:22:28;;;;;;;73.03;45.78;;;;;;;;;;2088543;28;20743;-60
2021/07/27 03:23:29;;;;;;;72.43;45.95;;;;;;;;;;2088921;28;20180;-60
2021/07/27 03:24:29;;;;;;;71.40;45.05;;;;;;;;;;2085768;28;20255;-59
2021/07/27 03:25:29;;;;;;;73.85;44.20;;;;;;;;;;2081176;28;20168;-60
2021/07/27 03:26:29;;;;;;;71.70;44.75;;;;;;;;;;2082288;28;20173;-60
2021/07/27 03:27:30;;;;;;;79.03;46.50;;;;;;;;;;2088346;28;20231;-60
2021/07/27 03:28:30;;;;;;;71.20;46.50;;;;;;;;;;2088003;28;20175;-59
2021/07/27 03:29:30;;;;;;;76.22;45.45;;;;;;;;;;2088713;28;20175;-58
2021/07/27 03:30:30;;;;;;;72.22;44.92;;;;;;;;;;2088620;28;20198;-60
2021/07/27 03:31:31;;;;;;;72.75;45.30;;;;;;;;;;2087746;28;20676;-59
2021/07/27 03:32:32;;;;;;;76.70;46.15;;;;;;;;;;2088477;28;20194;-57
2021/07/27 03:33:33;;;;;;;73.53;46.10;;;;;;;;;;2088989;28;20163;-60
2021/07/27 03:34:33;;;;;;;80.90;46.38;;;;;;;;;;2088943;28;20241;-60
2021/07/27 03:35:33;;;;;;;80.70;49.03;;;;;;;;;;2087762;28;20175;-60
2021/07/27 03:36:33;;;;;;;70.05;44.03;;;;;;;;;;2088729;28;20267;-60
2021/07/27 03:37:34;;;;;;;78.00;46.50;;;;;;;;;;2089587;28;20266;-60
2021/07/27 03:38:36;;;;;;;71.40;46.40;;;;;;;;;;2090181;28;20184;-60
2021/07/27 03:39:36;;;;;;;71.78;45.75;;;;;;;;;;2090248;28;20172;-58
2021/07/27 03:40:36;;;;;;;76.68;47.53;;;;;;;;;;2084175;28;20590;-57
2021/07/27 03:41:37;;;;;;;73.43;45.22;;;;;;;;;;2088199;28;20833;-54
2021/07/27 03:42:37;;;;;;;74.78;47.33;;;;;;;;;;2089319;28;20183;-55
2021/07/27 03:43:38;;;;;;;76.40;46.30;;;;;;;;;;2089169;28;20176;-57
2021/07/27 03:44:39;;;;;;;74.68;47.83;;;;;;;;;;2088715;28;20187;-60
2021/07/27 03:45:39;;;;;;;77.15;47.33;;;;;;;;;;2089053;28;20175;-55
2021/07/27 03:46:45;;;;;;;76.35;47.03;;;;;;;;;;2089278;28;20195;-56
2021/07/27 03:47:45;;;;;;;71.35;46.83;;;;;;;;;;2081668;28;20196;-54
2021/07/27 03:48:45;;;;;;;74.07;47.08;;;;;;;;;;2090760;28;20199;-57
2021/07/27 03:49:46;;;;;;;80.85;48.55;;;;;;;;;;2090178;28;20628;-55
2021/07/27 03:50:46;;;;;;;78.88;48.63;;;;;;;;;;2089384;28;20176;-58
2021/07/27 03:51:46;;;;;;;78.97;48.35;;;;;;;;;;2089890;28;20176;-56
2021/07/27 03:52:46;;;;;;;81.05;47.60;;;;;;;;;;2088849;28;20184;-57
2021/07/27 03:53:47;;;;;;;86.35;50.40;;;;;;;;;;2081877;28;20180;-58
2021/07/27 03:54:47;;;;;;;86.28;50.45;;;;;;;;;;2081774;28;20172;-60
2021/07/27 03:55:47;;;;;;;72.68;45.00;;;;;;;;;;2089718;28;20912;-60
2021/07/27 03:56:47;;;;;;;84.90;49.65;;;;;;;;;;2089884;28;20667;-59
2021/07/27 03:57:47;;;;;;;75.88;46.00;;;;;;;;;;2089455;28;20269;-60
2021/07/27 03:58:48;;;;;;;81.65;48.45;;;;;;;;;;2090331;28;20187;-60
2021/07/27 03:59:48;;;;;;;80.18;48.15;;;;;;;;;;2090126;28;20183;-57
2021/07/27 04:00:48;;;;;;;79.75;49.85;;;;;;;;;;2089103;28;20168;-60
2021/07/27 04:01:49;;;;;;;79.35;49.05;;;;;;;;;;2089170;28;20215;-61
2021/07/27 04:02:49;;;;;;;81.70;50.22;;;;;;;;;;2089384;28;20178;-58
2021/07/27 04:03:50;;;;;;;76.57;48.42;;;;;;;;;;2090088;28;20182;-59
2021/07/27 04:04:50;;;;;;;80.80;48.33;;;;;;;;;;2089739;28;20200;-59
2021/07/27 04:05:51;;;;;;;77.63;48.42;;;;;;;;;;2089412;28;20172;-60
2021/07/27 04:06:51;;;;;;;71.30;48.15;;;;;;;;;;2088533;28;20523;-61
2021/07/27 04:07:51;;;;;;;73.60;48.15;;;;;;;;;;2088476;28;20188;-58
2021/07/27 04:08:56;;;;;;;76.00;48.45;;;;;;;;;;2081220;28;20168;-60
2021/07/27 04:09:57;;;;;;;78.03;49.20;;;;;;;;;;2072653;28;20852;-59
2021/07/27 04:10:57;;;;;;;76.05;48.83;;;;;;;;;;2084234;28;20246;-60
2021/07/27 04:11:57;;;;;;;77.28;50.25;;;;;;;;;;2090090;28;20203;-58
2021/07/27 04:13:01;;;;;;;81.32;48.85;;;;;;;;;;2089546;28;20179;-59
2021/07/27 04:14:04;;;;;;;75.68;49.28;;;;;;;;;;2089808;28;20648;-61
2021/07/27 04:15:06;;;;;;;78.93;48.78;;;;;;;;;;2088913;28;20178;-59
2021/07/27 04:16:07;;;;;;;78.28;49.08;;;;;;;;;;2092813;28;20236;-59
2021/07/27 04:17:07;;;;;;;75.80;48.58;;;;;;;;;;2095328;28;20170;-60
2021/07/27 04:18:07;;;;;;;86.68;48.95;;;;;;;;;;2086044;28;20174;-58
2021/07/27 04:19:08;;;;;;;77.03;46.47;;;;;;;;;;2084337;28;20168;-59
2021/07/27 04:20:08;;;;;;;73.88;46.55;;;;;;;;;;2089685;28;20175;-60
2021/07/27 04:21:08;;;;;;;75.43;48.10;;;;;;;;;;2088907;28;20241;-60
2021/07/27 04:22:09;;;;;;;80.60;49.25;;;;;;;;;;2089482;28;20558;-60
2021/07/27 04:23:09;;;;;;;75.88;49.28;;;;;;;;;;2089143;28;20636;-58
2021/07/27 04:24:09;;;;;;;77.45;48.45;;;;;;;;;;2088782;28;20202;-60
2021/07/27 04:25:09;;;;;;;78.68;48.33;;;;;;;;;;2089210;28;20595;-60
2021/07/27 04:26:10;;;;;;;84.20;50.17;;;;;;;;;;2088860;28;20193;-60
2021/07/27 04:27:10;;;;;;;84.90;50.40;;;;;;;;;;2088729;28;20286;-60
2021/07/27 04:28:10;;;;;;;85.07;50.17;;;;;;;;;;2089078;28;20175;-59
2021/07/27 04:29:10;;;;;;;85.10;49.03;;;;;;;;;;2081013;28;20633;-59
2021/07/27 04:30:11;;;;;;;81.57;49.50;;;;;;;;;;2083173;28;20175;-58
2021/07/27 04:31:11;;;;;;;78.72;48.90;;;;;;;;;;2088228;28;20194;-56
2021/07/27 04:32:11;;;;;;;78.53;48.20;;;;;;;;;;2089319;28;20229;-59
2021/07/27 04:33:12;;;;;;;77.50;48.33;;;;;;;;;;2088621;28;20183;-61
2021/07/27 04:34:12;;;;;;;74.35;46.80;;;;;;;;;;2085702;28;20258;-60
2021/07/27 04:35:12;;;;;;;76.22;46.50;;;;;;;;;;2084807;28;20222;-59
2021/07/27 04:36:12;;;;;;;73.45;45.92;;;;;;;;;;2089060;28;20191;-60
2021/07/27 04:37:13;;;;;;;72.95;46.40;;;;;;;;;;2085060;28;20225;-59
2021/07/27 04:38:13;;;;;;;73.30;46.88;;;;;;;;;;2088582;28;20542;-59
2021/07/27 04:39:13;;;;;;;76.45;46.35;;;;;;;;;;2089390;28;20192;-59
2021/07/27 04:40:13;;;;;;;72.82;47.25;;;;;;;;;;2089688;28;20254;-59
2021/07/27 04:41:14;;;;;;;73.82;46.25;;;;;;;;;;2086167;28;20203;-59
2021/07/27 04:42:14;;;;;;;67.63;44.70;;;;;;;;;;2089444;28;20258;-57
2021/07/27 04:43:14;;;;;;;65.50;45.25;;;;;;;;;;2089016;28;20523;-60
2021/07/27 04:44:14;;;;;;;77.32;47.33;;;;;;;;;;2089566;28;20176;-59
2021/07/27 04:45:15;;;;;;;70.15;44.85;;;;;;;;;;2089843;28;20654;-60
2021/07/27 04:46:15;;;;;;;68.03;43.63;;;;;;;;;;2090406;28;20554;-58
2021/07/27 04:47:16;;;;;;;62.88;42.15;;;;;;;;;;2088909;28;20278;-54
2021/07/27 04:48:16;;;;;;;70.22;43.75;;;;;;;;;;2087809;28;20186;-58
2021/07/27 04:49:16;;;;;;;69.32;45.63;;;;;;;;;;2087414;28;20567;-57
2021/07/27 04:50:17;;;;;;;69.50;45.47;;;;;;;;;;2087026;28;20563;-57
2021/07/27 04:51:17;;;;;;;66.05;43.05;;;;;;;;;;2089485;28;20167;-58
2021/07/27 04:52:21;;;;;;;65.65;42.28;;;;;;;;;;2089589;28;20195;-53
2021/07/27 04:53:23;;;;;;;64.95;40.15;;;;;;;;;;2089722;28;20171;-56
2021/07/27 04:54:40;;;;;;;70.07;41.53;;;;;;;;;;2091329;28;20533;-54
2021/07/27 04:55:40;;;;;;;73.40;44.05;;;;;;;;;;2089030;28;20182;-55
2021/07/27 04:56:40;;;;;;;63.78;41.00;;;;;;;;;;2088272;28;20175;-56
2021/07/27 04:57:41;;;;;;;67.75;43.00;;;;;;;;;;2091307;28;20192;-57
2021/07/27 04:58:41;;;;;;;65.18;43.10;;;;;;;;;;2089094;28;20183;-59
2021/07/27 04:59:41;;;;;;;65.78;41.88;;;;;;;;;;2088903;28;20648;-57
2021/07/27 05:00:41;;;;;;;68.15;43.67;;;;;;;;;;2086164;28;20179;-58
2021/07/27 05:01:41;;;;;;;64.28;41.60;;;;;;;;;;2088822;28;20459;-57
2021/07/27 05:02:42;;;;;;;62.08;41.13;;;;;;;;;;2090040;28;20556;-57
2021/07/27 05:03:42;;;;;;;62.05;40.38;;;;;;;;;;2092437;28;20159;-54
2021/07/27 05:04:43;;;;;;;61.75;39.03;;;;;;;;;;2090963;28;20245;-55
2021/07/27 05:05:43;;;;;;;58.75;38.92;;;;;;;;;;2092503;28;20168;-56
2021/07/27 05:06:43;;;;;;;60.78;40.13;;;;;;;;;;2086757;28;20212;-58
2021/07/27 05:07:45;;;;;;;57.70;38.70;;;;;;;;;;2089213;28;20199;-56
2021/07/27 05:08:45;;;;;;;58.90;39.65;;;;;;;;;;2088821;28;20167;-58
2021/07/27 05:09:45;;;;;;;58.92;40.38;;;;;;;;;;2089561;28;20217;-56
2021/07/27 05:10:46;;;;;;;58.35;38.75;;;;;;;;;;2089884;28;20183;-54
2021/07/27 05:11:46;;;;;;;55.70;37.17;;;;;;;;;;2088736;28;20171;-51
2021/07/27 05:12:46;;;;;;;55.17;38.30;;;;;;;;;;2089937;28;20190;-54
2021/07/27 05:13:47;;;;;;;55.03;37.63;;;;;;;;;;2089708;28;20171;-54
2021/07/27 05:14:47;;;;;;;57.80;38.90;;;;;;;;;;2088104;28;20823;-57
2021/07/27 05:15:47;;;;;;;59.95;38.70;;;;;;;;;;2085878;28;20183;-57
2021/07/27 05:16:47;;;;;;;58.97;38.25;;;;;;;;;;2083947;28;20671;-57
2021/07/27 05:17:49;;;;;;;55.65;38.33;;;;;;;;;;2084829;28;20208;-60
2021/07/27 05:18:50;;;;;;;52.00;36.85;;;;;;;;;;2089518;28;20171;-55
2021/07/27 05:19:53;;;;;;;52.42;36.47;;;;;;;;;;2088418;28;20749;-56
2021/07/27 05:20:54;;;;;;;53.50;38.03;;;;;;;;;;2089953;28;20189;-59
2021/07/27 05:21:54;;;;;;;54.72;37.08;;;;;;;;;;2089875;28;20175;-56
2021/07/27 05:22:55;;;;;;;54.95;37.67;;;;;;;;;;2083930;28;20667;-61
2021/07/27 05:23:56;;;;;;;59.05;39.25;;;;;;;;;;2085944;28;20168;-55
2021/07/27 05:24:56;;;;;;;60.33;38.88;;;;;;;;;;2086842;28;20191;-62
2021/07/27 05:25:56;;;;;;;55.88;37.67;;;;;;;;;;2088692;28;20207;-60
2021/07/27 05:26:57;;;;;;;59.03;40.70;;;;;;;;;;2088960;28;20183;-59
2021/07/27 05:27:57;;;;;;;55.55;38.63;;;;;;;;;;2076987;28;20211;-59
2021/07/27 05:28:57;;;;;;;57.63;38.67;;;;;;;;;;2080995;28;20604;-60
2021/07/27 05:29:58;;;;;;;54.65;39.42;;;;;;;;;;2088470;28;20199;-59
2021/07/27 05:30:58;;;;;;;54.58;38.38;;;;;;;;;;2084180;28;20187;-61
2021/07/27 05:31:59;;;;;;;55.60;38.88;;;;;;;;;;2083205;28;20191;-61
2021/07/27 05:33:01;;;;;;;56.63;38.95;;;;;;;;;;2087737;28;20187;-55
2021/07/27 05:34:02;;;;;;;56.42;37.03;;;;;;;;;;2088550;28;20275;-52
2021/07/27 05:35:02;;;;;;;60.05;38.92;;;;;;;;;;2072164;28;20548;-59
2021/07/27 05:36:05;;;;;;;57.25;39.15;;;;;;;;;;2071907;28;20270;-61
2021/07/27 05:37:05;;;;;;;56.42;37.22;;;;;;;;;;2079251;28;20664;-57
2021/07/27 05:38:06;;;;;;;58.17;38.75;;;;;;;;;;2087504;28;20286;-51
2021/07/27 05:39:06;;;;;;;54.13;37.80;;;;;;;;;;2088732;28;20163;-58
2021/07/27 05:40:06;;;;;;;52.25;37.85;;;;;;;;;;2088169;28;20831;-60
2021/07/27 05:41:07;;;;;;;54.03;37.35;;;;;;;;;;2088670;28;20160;-59
2021/07/27 05:42:07;;;;;;;50.40;35.13;;;;;;;;;;2088874;28;20799;-59
2021/07/27 05:43:07;;;;;;;49.83;36.50;;;;;;;;;;2087935;28;20175;-60
2021/07/27 05:44:08;;;;;;;51.38;36.15;;;;;;;;;;2086758;28;20199;-59
2021/07/27 05:45:08;;;;;;;50.63;35.67;;;;;;;;;;2085267;28;20259;-58
2021/07/27 05:46:08;;;;;;;50.30;34.55;;;;;;;;;;2088865;28;20163;-59
2021/07/27 05:47:09;;;;;;;46.50;34.58;;;;;;;;;;2083049;28;20204;-59
2021/07/27 05:48:09;;;;;;;52.85;35.25;;;;;;;;;;2078576;28;20196;-65
2021/07/27 05:49:10;;;;;;;47.80;35.25;;;;;;;;;;2087594;28;20671;-61
2021/07/27 05:50:11;;;;;;;50.55;35.85;;;;;;;;;;2089489;28;20292;-61
2021/07/27 05:51:14;;;;;;;46.83;33.80;;;;;;;;;;2088509;28;20723;-61
2021/07/27 05:52:14;;;;;;;47.90;34.92;;;;;;;;;;2085792;28;20156;-58
2021/07/27 05:53:14;;;;;;;43.67;32.50;;;;;;;;;;2085370;28;20266;-58
2021/07/27 05:54:15;;;;;;;46.00;32.45;;;;;;;;;;2086133;28;20175;-59
2021/07/27 05:55:15;;;;;;;44.85;32.20;;;;;;;;;;2085399;28;20258;-60
2021/07/27 05:56:15;;;;;;;44.20;33.17;;;;;;;;;;2086236;28;20206;-56
2021/07/27 05:57:17;;;;;;;44.78;34.30;;;;;;;;;;2086438;28;20265;-60
2021/07/27 05:58:18;;;;;;;46.78;33.33;;;;;;;;;;2087231;28;20254;-58
2021/07/27 05:59:19;;;;;;;44.78;32.60;;;;;;;;;;2086430;28;20171;-62
2021/07/27 06:00:19;;;;;;;41.28;31.33;;;;;;;;;;2087117;28;20674;-60
2021/07/27 06:01:19;;;;;;;46.50;33.17;;;;;;;;;;2086637;28;20230;-59
2021/07/27 06:02:21;;;;;;;45.10;33.17;;;;;;;;;;2087125;28;20655;-58
2021/07/27 06:03:21;;;;;;;42.50;31.95;;;;;;;;;;2087023;28;20598;-60
2021/07/27 06:04:22;;;;;;;45.50;31.55;;;;;;;;;;2087073;28;20182;-58
2021/07/27 06:05:22;;;;;;;41.22;31.27;;;;;;;;;;2086934;28;20163;-62
2021/07/27 06:06:22;;;;;;;41.95;31.65;;;;;;;;;;2086952;28;20172;-62
2021/07/27 06:07:23;;;;;;;45.63;31.50;;;;;;;;;;2088979;28;20253;-59
2021/07/27 06:08:23;;;;;;;38.47;29.70;;;;;;;;;;2089862;28;20247;-60
2021/07/27 06:09:23;;;;;;;41.10;29.73;;;;;;;;;;2089414;28;20253;-60
2021/07/27 06:10:23;;;;;;;38.28;29.55;;;;;;;;;;2089837;28;20178;-60
2021/07/27 06:11:24;;;;;;;42.40;30.25;;;;;;;;;;2088575;28;20167;-61
2021/07/27 06:12:24;;;;;;;35.92;27.30;;;;;;;;;;2086927;28;20187;-60
2021/07/27 06:13:24;;;;;;;38.92;29.23;;;;;;;;;;2083686;28;20226;-60
2021/07/27 06:14:25;;;;;;;34.28;28.35;;;;;;;;;;2084556;28;20180;-57
2021/07/27 06:15:25;;;;;;;38.88;29.23;;;;;;;;;;2087311;28;20176;-59
2021/07/27 06:16:25;;;;;;;33.60;27.00;;;;;;;;;;2087265;28;20168;-59
2021/07/27 06:17:25;;;;;;;34.45;27.02;;;;;;;;;;2087230;28;20214;-57
2021/07/27 06:18:25;;;;;;;32.15;26.73;;;;;;;;;;2087735;28;20188;-53
2021/07/27 06:19:26;;;;;;;36.97;27.17;;;;;;;;;;2087732;28;20182;-54
2021/07/27 06:20:26;;;;;;;33.47;24.95;;;;;;;;;;2084765;28;20255;-53
2021/07/27 06:21:27;;;;;;;33.28;27.45;;;;;;;;;;2086240;28;20195;-52
2021/07/27 06:22:27;;;;;;;34.30;26.55;;;;;;;;;;2089204;28;20160;-55
2021/07/27 06:23:28;;;;;;;34.72;26.08;;;;;;;;;;2089760;28;20210;-58
2021/07/27 06:24:28;;;;;;;33.97;26.75;;;;;;;;;;2089985;28;20175;-53
2021/07/27 06:25:28;;;;;;;35.70;25.35;;;;;;;;;;2089784;28;20272;-55
2021/07/27 06:26:28;;;;;;;35.30;26.63;;;;;;;;;;2089590;28;20188;-54
2021/07/27 06:27:29;;;;;;;32.78;25.05;;;;;;;;;;2089188;28;20207;-58
2021/07/27 06:28:29;;;;;;;31.25;24.52;;;;;;;;;;2088816;28;20276;-57
2021/07/27 06:29:30;;;;;;;34.40;26.55;;;;;;;;;;2088104;28;20171;-52
2021/07/27 06:30:30;;;;;;;34.30;26.05;;;;;;;;;;2089472;28;20602;-57
2021/07/27 06:31:31;;;;;;;33.15;25.30;;;;;;;;;;2089918;28;20180;-56
2021/07/27 06:32:31;;;;;;;30.95;24.95;;;;;;;;;;2088845;28;20179;-52
2021/07/27 06:33:31;;;;;;;33.75;26.48;;;;;;;;;;2088415;28;20180;-52
2021/07/27 06:34:31;;;;;;;32.80;25.58;;;;;;;;;;2088136;28;20249;-50
2021/07/27 06:35:32;;;;;;;30.75;25.30;;;;;;;;;;2088955;28;20661;-50
2021/07/27 06:36:32;;;;;;;34.90;26.27;;;;;;;;;;2088748;28;20256;-53
2021/07/27 06:37:32;;;;;;;30.95;25.00;;;;;;;;;;2088180;28;20207;-53
2021/07/27 06:38:33;;;;;;;32.28;25.63;;;;;;;;;;2087902;28;20724;-55
2021/07/27 06:39:33;;;;;;;33.88;25.85;;;;;;;;;;2088531;28;20640;-54
2021/07/27 06:40:34;;;;;;;33.42;26.90;;;;;;;;;;2089244;28;20197;-51
2021/07/27 06:41:34;;;;;;;35.53;26.50;;;;;;;;;;2088612;28;20707;-49
2021/07/27 06:42:34;;;;;;;35.50;26.40;;;;;;;;;;2088297;28;20723;-52
2021/07/27 06:43:35;;;;;;;34.47;26.80;;;;;;;;;;2089214;28;20271;-49
2021/07/27 06:44:35;;;;;;;36.75;27.50;;;;;;;;;;2089227;28;20168;-50
2021/07/27 06:45:36;;;;;;;34.33;26.65;;;;;;;;;;2088521;28;20170;-54
2021/07/27 06:46:37;;;;;;;36.42;27.98;;;;;;;;;;2089262;28;20176;-55
2021/07/27 06:47:38;;;;;;;35.17;26.98;;;;;;;;;;2088772;28;20239;-56
2021/07/27 06:48:38;;;;;;;35.92;28.55;;;;;;;;;;2088422;28;20179;-58
2021/07/27 06:49:38;;;;;;;35.95;27.77;;;;;;;;;;2102844;22;20256;-52
2021/07/27 06:50:38;;;;;;;38.60;29.65;;;;;;;;;;2081383;28;20647;-57
2021/07/27 06:51:40;;;;;;;39.42;28.83;;;;;;;;;;2078193;28;20184;-55
2021/07/27 06:52:41;;;;;;;41.80;31.52;;;;;;;;;;2085191;28;20176;-55
2021/07/27 06:53:41;;;;;;;41.83;31.48;;;;;;;;;;2089590;28;20656;-53
2021/07/27 06:54:41;;;;;;;44.75;31.50;;;;;;;;;;2087286;28;20706;-55
2021/07/27 06:55:42;;;;;;;39.47;30.23;;;;;;;;;;2089027;28;20171;-55
2021/07/27 06:56:44;;;;;;;39.03;29.80;;;;;;;;;;2089342;28;20175;-57
2021/07/27 06:57:44;;;;;;;39.00;32.13;;;;;;;;;;2089008;28;20555;-57
2021/07/27 06:58:45;;;;;;;40.17;30.83;;;;;;;;;;2084384;28;20242;-55
2021/07/27 06:59:45;;;;;;;42.17;32.35;;;;;;;;;;2088008;28;20196;-56
2021/07/27 07:00:45;;;;;;;39.75;31.55;;;;;;;;;;2083035;28;20217;-55
2021/07/27 07:01:45;;;;;;;40.72;30.83;;;;;;;;;;2086121;28;20801;-58
2021/07/27 07:02:46;;;;;;;42.95;34.50;;;;;;;;;;2078601;28;20180;-54
2021/07/27 07:03:46;;;;;;;42.45;32.13;;;;;;;;;;2089432;28;20163;-51
2021/07/27 07:04:46;;;;;;;40.90;30.77;;;;;;;;;;2083094;28;20184;-54
2021/07/27 07:05:46;;;;;;;43.30;33.15;;;;;;;;;;2080309;28;20172;-54
2021/07/27 07:06:46;;;;;;;43.53;30.83;;;;;;;;;;2087378;28;20678;-50
2021/07/27 07:07:47;;;;;;;39.05;29.48;;;;;;;;;;2087460;28;20775;-51
2021/07/27 07:08:50;;;;;;;41.17;31.38;;;;;;;;;;2083477;28;20844;-53